createdAt,value
2023-01-17T00:02:09.374Z,2.06
2023-01-17T00:04:54.987Z,2.03
2023-01-17T00:07:42.448Z,2.04
2023-01-17T00:10:28.401Z,2.03
2023-01-17T00:12:56.221Z,2.03
2023-01-17T00:15:23.673Z,2.02
2023-01-17T00:17:50.575Z,2.00
2023-01-17T00:20:37.883Z,2.05
2023-01-17T00:23:36.564Z,2.08
2023-01-17T00:26:05.346Z,2.11
2023-01-17T00:28:35.076Z,2.12
2023-01-17T00:31:02.216Z,2.13
2023-01-17T00:33:28.806Z,2.13
2023-01-17T00:35:57.433Z,2.13
2023-01-17T00:38:30.463Z,2.18
2023-01-17T00:41:03.301Z,2.18
2023-01-17T00:43:48.987Z,2.19
2023-01-17T00:46:34.401Z,2.19
2023-01-17T00:49:19.472Z,2.21
2023-01-17T00:52:04.237Z,2.22
2023-01-17T00:54:49.068Z,2.19
2023-01-17T00:57:34.058Z,2.18
2023-01-17T01:00:18.884Z,2.18
2023-01-17T01:03:03.819Z,2.15
2023-01-17T01:05:48.672Z,2.15
2023-01-17T01:08:47.656Z,2.14
2023-01-17T01:11:36.132Z,2.13
2023-01-17T01:14:21.404Z,2.09
2023-01-17T01:17:06.801Z,2.07
2023-01-17T01:19:52.029Z,2.02
2023-01-17T01:22:37.321Z,2.01
2023-01-17T01:25:23.400Z,2.00
2023-01-17T01:28:08.226Z,2.00
2023-01-17T01:30:53.136Z,1.98
2023-01-17T01:33:19.991Z,1.90
2023-01-17T01:35:51.842Z,1.92
2023-01-17T01:38:20.400Z,1.97
2023-01-17T01:40:49.850Z,1.97
2023-01-17T01:43:19.752Z,1.96
2023-01-17T01:45:52.598Z,1.97
2023-01-17T01:48:33.690Z,1.97
2023-01-17T01:51:04.560Z,1.96
2023-01-17T01:53:35.488Z,1.99
2023-01-17T01:56:05.985Z,1.99
2023-01-17T01:58:34.751Z,1.93
2023-01-17T02:01:01.343Z,1.87
2023-01-17T02:03:31.050Z,1.83
2023-01-17T02:06:04.345Z,1.71
2023-01-17T02:08:31.482Z,1.62
2023-01-17T02:10:57.915Z,1.59
2023-01-17T02:13:24.435Z,1.50
2023-01-17T02:16:17.339Z,1.41
2023-01-17T02:19:11.467Z,1.34
2023-01-17T02:21:50.233Z,1.32
2023-01-17T02:24:41.248Z,1.27
2023-01-17T02:27:15.672Z,1.21
2023-01-17T02:29:51.041Z,1.22
2023-01-17T02:32:45.393Z,1.17
2023-01-17T02:35:37.222Z,1.12
2023-01-17T02:38:21.688Z,1.07
2023-01-17T02:40:54.709Z,1.03
2023-01-17T02:43:23.259Z,1.03
2023-01-17T02:45:49.937Z,1.01
2023-01-17T02:48:21.578Z,1.00
2023-01-17T02:51:14.104Z,1.03
2023-01-17T02:53:59.320Z,1.02
2023-01-17T02:56:50.586Z,1.00
2023-01-17T02:59:19.976Z,0.96
2023-01-17T03:02:21.891Z,0.96
2023-01-17T03:04:55.527Z,0.96
2023-01-17T03:07:25.922Z,0.97
2023-01-17T03:09:59.770Z,0.97
2023-01-17T03:12:29.727Z,0.97
2023-01-17T03:14:56.675Z,0.95
2023-01-17T03:17:26.784Z,0.95
2023-01-17T03:19:53.158Z,0.99
2023-01-17T03:22:19.591Z,0.99
2023-01-17T03:24:45.973Z,0.98
2023-01-17T03:27:12.382Z,0.97
2023-01-17T03:29:38.832Z,0.97
2023-01-17T03:32:05.547Z,0.99
2023-01-17T03:34:31.993Z,1.04
2023-01-17T03:36:58.398Z,1.10
2023-01-17T03:39:24.851Z,1.13
2023-01-17T03:41:51.388Z,1.18
2023-01-17T03:44:17.881Z,1.23
2023-01-17T03:46:44.509Z,1.25
2023-01-17T03:49:11.152Z,1.28
2023-01-17T03:51:37.553Z,1.31
2023-01-17T03:54:04.176Z,1.35
2023-01-17T03:56:30.591Z,1.39
2023-01-17T03:58:58.464Z,1.40
2023-01-17T04:01:25.682Z,1.41
2023-01-17T04:03:52.207Z,1.38
2023-01-17T04:06:18.626Z,1.39
2023-01-17T04:08:45.050Z,1.39
2023-01-17T04:11:11.442Z,1.41
2023-01-17T04:13:37.854Z,1.41
2023-01-17T04:16:04.624Z,1.42
2023-01-17T04:18:31.080Z,1.41
2023-01-17T04:20:57.537Z,1.44
2023-01-17T04:23:23.984Z,1.44
2023-01-17T04:25:50.374Z,1.46
2023-01-17T04:28:16.824Z,1.47
2023-01-17T04:30:43.286Z,1.47
2023-01-17T04:33:09.696Z,1.46
2023-01-17T04:35:36.162Z,1.47
2023-01-17T04:38:02.780Z,1.42
2023-01-17T04:40:29.629Z,1.46
2023-01-17T04:42:57.791Z,1.45
2023-01-17T04:45:24.212Z,1.47
2023-01-17T04:47:50.706Z,1.45
2023-01-17T04:50:17.546Z,1.41
2023-01-17T04:52:44.167Z,1.40
2023-01-17T04:55:10.840Z,1.38
2023-01-17T04:57:37.247Z,1.32
2023-01-17T05:00:04.723Z,1.25
2023-01-17T05:02:31.227Z,1.20
2023-01-17T05:04:57.635Z,1.10
2023-01-17T05:07:24.058Z,1.04
2023-01-17T05:09:50.442Z,1.00
2023-01-17T05:12:16.870Z,0.96
2023-01-17T05:14:43.295Z,0.91
2023-01-17T05:17:11.184Z,0.90
2023-01-17T05:19:37.712Z,0.85
2023-01-17T05:22:14.710Z,0.84
2023-01-17T05:24:46.029Z,0.79
2023-01-17T05:27:13.646Z,0.77
2023-01-17T05:29:40.661Z,0.71
2023-01-17T05:32:07.484Z,0.69
2023-01-17T05:34:34.953Z,0.67
2023-01-17T05:37:01.388Z,0.65
2023-01-17T05:39:27.857Z,0.60
2023-01-17T05:41:54.270Z,0.55
2023-01-17T05:44:20.799Z,0.54
2023-01-17T05:46:47.201Z,0.52
2023-01-17T05:49:13.672Z,0.52
2023-01-17T05:51:40.180Z,0.53
2023-01-17T05:54:07.036Z,0.49
2023-01-17T05:56:33.803Z,0.51
2023-01-17T05:59:00.323Z,0.51
2023-01-17T06:01:26.816Z,0.49
2023-01-17T06:03:53.288Z,0.44
2023-01-17T06:06:19.715Z,0.47
2023-01-17T06:08:46.121Z,0.48
2023-01-17T06:11:12.551Z,0.43
2023-01-17T06:13:38.967Z,0.54
2023-01-17T06:16:05.629Z,0.56
2023-01-17T06:18:32.215Z,0.51
2023-01-17T06:20:58.703Z,0.59
2023-01-17T06:23:25.462Z,0.58
2023-01-17T06:25:52.335Z,0.57
2023-01-17T06:28:21.767Z,0.54
2023-01-17T06:30:48.835Z,0.51
2023-01-17T06:33:15.430Z,0.50
2023-01-17T06:35:52.224Z,0.50
2023-01-17T06:38:19.082Z,0.45
2023-01-17T06:40:45.499Z,0.51
2023-01-17T06:43:11.940Z,0.52
2023-01-17T06:45:38.342Z,0.54
2023-01-17T06:48:05.547Z,0.52
2023-01-17T06:50:33.507Z,0.57
2023-01-17T06:53:05.451Z,0.50
2023-01-17T06:55:36.083Z,0.48
2023-01-17T06:58:02.956Z,0.48
2023-01-17T07:00:31.395Z,0.46
2023-01-17T07:02:57.992Z,0.49
2023-01-17T07:05:24.923Z,0.51
2023-01-17T07:07:51.482Z,0.53
2023-01-17T07:10:18.041Z,0.57
2023-01-17T07:12:44.483Z,0.58
2023-01-17T07:15:11.393Z,0.60
2023-01-17T07:17:38.225Z,0.65
2023-01-17T07:20:05.203Z,0.70
2023-01-17T07:22:31.633Z,0.75
2023-01-17T07:25:00.946Z,0.77
2023-01-17T07:27:30.414Z,0.80
2023-01-17T07:29:57.350Z,0.83
2023-01-17T07:32:25.869Z,0.87
2023-01-17T07:34:52.485Z,0.87
2023-01-17T07:37:19.982Z,0.88
2023-01-17T07:39:46.812Z,0.83
2023-01-17T07:42:13.258Z,0.87
2023-01-17T07:44:43.798Z,0.86
2023-01-17T07:47:10.583Z,0.87
2023-01-17T07:49:37.371Z,0.87
2023-01-17T07:52:06.610Z,0.87
2023-01-17T07:54:33.061Z,0.87
2023-01-17T07:56:59.506Z,0.89
2023-01-17T07:59:25.918Z,0.87
2023-01-17T08:01:52.437Z,0.90
2023-01-17T08:04:19.020Z,0.88
2023-01-17T08:06:48.613Z,0.85
2023-01-17T08:09:15.048Z,0.83
2023-01-17T08:11:41.480Z,0.84
2023-01-17T08:14:07.921Z,0.83
2023-01-17T08:16:34.374Z,0.80
2023-01-17T08:19:00.792Z,0.81
2023-01-17T08:21:27.239Z,0.82
2023-01-17T08:23:53.701Z,0.85
2023-01-17T08:26:22.165Z,0.87
2023-01-17T08:29:01.924Z,0.91
2023-01-17T08:31:31.116Z,0.90
2023-01-17T08:33:57.632Z,0.94
2023-01-17T08:36:25.733Z,0.94
2023-01-17T08:38:52.834Z,0.98
2023-01-17T08:41:20.793Z,1.04
2023-01-17T08:43:48.352Z,1.12
2023-01-17T08:46:14.915Z,1.20
2023-01-17T08:48:41.405Z,1.33
2023-01-17T08:51:08.033Z,1.43
2023-01-17T08:53:34.530Z,1.49
2023-01-17T08:56:02.975Z,1.69
2023-01-17T08:58:31.296Z,1.60
2023-01-17T09:01:02.938Z,1.83
2023-01-17T09:03:30.958Z,1.90
2023-01-17T09:06:02.346Z,1.95
2023-01-17T09:08:28.677Z,1.90
2023-01-17T09:10:55.076Z,1.84
2023-01-17T09:13:22.346Z,1.83
2023-01-17T09:15:48.807Z,1.88
2023-01-17T09:18:15.320Z,1.98
2023-01-17T09:20:41.697Z,2.05
2023-01-17T09:23:08.095Z,2.09
2023-01-17T09:25:34.671Z,2.12
2023-01-17T09:28:01.122Z,2.12
2023-01-17T09:30:27.531Z,2.10
2023-01-17T09:32:54.863Z,2.13
2023-01-17T09:35:21.416Z,2.10
2023-01-17T09:37:51.706Z,2.11
2023-01-17T09:40:22.713Z,2.08
2023-01-17T09:42:53.867Z,2.08
2023-01-17T09:45:21.095Z,2.10
2023-01-17T09:47:53.815Z,2.09
2023-01-17T09:50:23.014Z,2.11
2023-01-17T09:52:49.584Z,2.15
2023-01-17T09:55:17.971Z,2.24
2023-01-17T09:58:02.975Z,2.30
2023-01-17T10:00:46.801Z,2.30
2023-01-17T10:03:27.236Z,2.34
2023-01-17T10:06:10.057Z,2.35
2023-01-17T10:08:55.266Z,2.36
2023-01-17T10:11:53.758Z,2.41
2023-01-17T10:14:36.076Z,2.43
2023-01-17T10:17:16.087Z,2.48
2023-01-17T10:20:16.444Z,2.58
2023-01-17T10:23:21.943Z,2.67
2023-01-17T10:25:50.304Z,2.80
2023-01-17T10:28:20.489Z,3.02
2023-01-17T10:30:52.585Z,3.26
2023-01-17T10:33:24.021Z,3.53
2023-01-17T10:35:53.451Z,3.78
2023-01-17T10:38:25.224Z,3.98
2023-01-17T10:40:58.563Z,4.06
2023-01-17T10:43:44.147Z,4.18
2023-01-17T10:46:28.308Z,4.32
2023-01-17T10:48:56.069Z,4.30
2023-01-17T10:51:50.424Z,4.35
2023-01-17T10:54:51.386Z,4.43
2023-01-17T10:57:22.765Z,4.65
2023-01-17T10:59:49.388Z,4.78
2023-01-17T11:02:24.381Z,4.90
2023-01-17T11:04:54.576Z,5.01
2023-01-17T11:07:26.320Z,5.25
2023-01-17T11:09:55.441Z,5.32
2023-01-17T11:12:33.357Z,5.34
2023-01-17T11:15:19.770Z,5.41
2023-01-17T11:18:02.207Z,5.58
2023-01-17T11:20:42.926Z,5.78
2023-01-17T11:23:21.631Z,6.07
2023-01-17T11:26:02.759Z,6.21
2023-01-17T11:28:34.680Z,6.41
2023-01-17T11:31:07.504Z,6.65
2023-01-17T11:33:45.059Z,6.80
2023-01-17T11:36:22.930Z,6.99
2023-01-17T11:39:06.521Z,7.08
2023-01-17T11:41:40.970Z,7.08
2023-01-17T11:44:30.783Z,6.99
2023-01-17T11:47:12.215Z,6.76
2023-01-17T11:49:42.869Z,6.65
2023-01-17T11:52:30.743Z,6.55
2023-01-17T11:54:57.219Z,6.51
2023-01-17T11:57:31.229Z,6.41
2023-01-17T12:00:21.905Z,6.37
2023-01-17T12:03:30.294Z,6.19
2023-01-17T12:06:07.255Z,6.07
2023-01-17T12:08:52.915Z,5.90
2023-01-17T12:11:37.759Z,5.67
2023-01-17T12:14:30.494Z,5.43
2023-01-17T12:17:19.986Z,5.17
2023-01-17T12:20:04.984Z,4.97
2023-01-17T12:22:53.305Z,4.85
2023-01-17T12:25:22.676Z,4.81
2023-01-17T12:28:11.202Z,4.69
2023-01-17T12:31:14.888Z,4.59
2023-01-17T12:33:57.180Z,4.48
2023-01-17T12:36:48.479Z,4.30
2023-01-17T12:39:19.212Z,4.16
2023-01-17T12:41:48.533Z,4.02
2023-01-17T12:44:18.190Z,3.95
2023-01-17T12:46:59.838Z,3.95
2023-01-17T12:49:37.954Z,3.93
2023-01-17T12:52:19.654Z,3.94
2023-01-17T12:54:52.136Z,3.94
2023-01-17T12:57:34.514Z,3.94
2023-01-17T13:00:06.755Z,3.90
2023-01-17T13:02:41.463Z,3.83
2023-01-17T13:05:18.424Z,3.86
2023-01-17T13:07:56.283Z,3.89
2023-01-17T13:10:31.848Z,3.89
2023-01-17T13:13:11.885Z,3.92
2023-01-17T13:15:41.572Z,3.90
2023-01-17T13:18:17.253Z,3.85
2023-01-17T13:21:12.803Z,3.79
2023-01-17T13:24:11.304Z,3.76
2023-01-17T13:26:56.095Z,3.67
2023-01-17T13:29:52.172Z,3.62
2023-01-17T13:32:52.111Z,3.56
2023-01-17T13:35:42.655Z,3.50
2023-01-17T13:38:12.038Z,3.45
2023-01-17T13:41:15.160Z,3.48
2023-01-17T13:44:07.457Z,3.44
2023-01-17T13:47:01.001Z,3.41
2023-01-17T13:49:31.477Z,3.38
2023-01-17T13:52:12.653Z,3.34
2023-01-17T13:54:56.736Z,3.30
2023-01-17T13:57:23.106Z,3.26
2023-01-17T13:59:49.880Z,3.20
2023-01-17T14:02:42.262Z,3.18
2023-01-17T14:05:23.133Z,3.19
2023-01-17T14:07:55.215Z,3.16
2023-01-17T14:10:52.299Z,3.09
2023-01-17T14:13:34.194Z,3.00
2023-01-17T14:16:02.502Z,2.96
2023-01-17T14:18:41.933Z,2.95
2023-01-17T14:21:23.858Z,2.89
2023-01-17T14:24:06.278Z,2.81
2023-01-17T14:26:37.438Z,2.79
2023-01-17T14:29:45.163Z,2.73
2023-01-17T14:32:23.642Z,2.65
2023-01-17T14:34:51.916Z,2.58
2023-01-17T14:37:41.308Z,2.56
2023-01-17T14:40:35.842Z,2.54
2023-01-17T14:43:23.680Z,2.52
2023-01-17T14:45:57.796Z,2.48
2023-01-17T14:48:24.882Z,2.47
2023-01-17T14:50:54.165Z,2.48
2023-01-17T14:53:27.865Z,2.47
2023-01-17T14:55:57.602Z,2.44
2023-01-17T14:58:29.201Z,2.44
2023-01-17T15:01:12.431Z,2.43
2023-01-17T15:03:58.021Z,2.43
2023-01-17T15:06:32.763Z,2.44
2023-01-17T15:09:00.937Z,2.43
2023-01-17T15:11:30.662Z,2.42
2023-01-17T15:14:01.024Z,2.42
2023-01-17T15:16:33.999Z,2.37
2023-01-17T15:19:01.433Z,2.34
2023-01-17T15:21:40.584Z,2.32
2023-01-17T15:24:09.002Z,2.35
2023-01-17T15:26:40.524Z,2.36
2023-01-17T15:29:15.625Z,2.34
2023-01-17T15:31:43.859Z,2.35
2023-01-17T15:34:43.780Z,2.36
2023-01-17T15:37:28.994Z,2.37
2023-01-17T15:40:08.091Z,2.33
2023-01-17T15:42:38.393Z,2.26
2023-01-17T15:45:10.760Z,2.29
2023-01-17T15:47:38.956Z,2.23
2023-01-17T15:50:39.674Z,2.20
2023-01-17T15:53:26.750Z,2.15
2023-01-17T15:55:53.481Z,2.16
2023-01-17T15:58:25.592Z,2.18
2023-01-17T16:00:52.012Z,2.20
2023-01-17T16:03:24.486Z,2.23
2023-01-17T16:05:53.210Z,2.21
2023-01-17T16:08:25.972Z,2.27
2023-01-17T16:11:06.045Z,2.23
2023-01-17T16:13:37.080Z,2.25
2023-01-17T16:16:23.757Z,2.24
2023-01-17T16:18:58.415Z,2.27
2023-01-17T16:21:27.607Z,2.27
2023-01-17T16:23:54.737Z,2.28
2023-01-17T16:26:21.415Z,2.26
2023-01-17T16:28:48.915Z,2.28
2023-01-17T16:31:16.019Z,2.30
2023-01-17T16:33:42.616Z,2.32
2023-01-17T16:36:15.095Z,2.25
2023-01-17T16:38:42.963Z,2.30
2023-01-17T16:41:09.491Z,2.31
2023-01-17T16:43:36.067Z,2.29
2023-01-17T16:46:02.537Z,2.29
2023-01-17T16:48:28.974Z,2.32
2023-01-17T16:50:55.450Z,2.32
2023-01-17T16:53:24.830Z,2.30
2023-01-17T16:55:54.200Z,2.31
2023-01-17T16:58:20.740Z,2.34
2023-01-17T17:00:47.600Z,2.38
2023-01-17T17:03:19.129Z,2.39
2023-01-17T17:05:53.663Z,2.40
2023-01-17T17:08:20.072Z,2.39
2023-01-17T17:10:46.496Z,2.42
2023-01-17T17:13:12.911Z,2.35
2023-01-17T17:15:45.646Z,2.35
2023-01-17T17:18:17.232Z,2.33
2023-01-17T17:20:44.706Z,2.34
2023-01-17T17:23:11.503Z,2.29
2023-01-17T17:25:38.307Z,2.35
2023-01-17T17:28:05.609Z,2.30
2023-01-17T17:30:33.241Z,2.33
2023-01-17T17:32:59.716Z,2.33
2023-01-17T17:35:26.739Z,2.36
2023-01-17T17:37:53.482Z,2.37
2023-01-17T17:40:20.163Z,2.37
2023-01-17T17:42:46.600Z,2.42
2023-01-17T17:45:13.090Z,2.42
2023-01-17T17:47:39.536Z,2.41
2023-01-17T17:50:06.449Z,2.42
2023-01-17T17:52:32.963Z,2.43
2023-01-17T17:54:59.546Z,2.38
2023-01-17T17:57:25.989Z,2.33
2023-01-17T17:59:55.961Z,2.18
2023-01-17T18:02:22.458Z,2.32
2023-01-17T18:04:48.873Z,2.33
2023-01-17T18:07:15.359Z,2.29
2023-01-17T18:09:41.752Z,2.35
2023-01-17T18:12:08.161Z,2.30
2023-01-17T18:14:34.580Z,2.36
2023-01-17T18:17:00.977Z,2.39
2023-01-17T18:19:27.564Z,2.41
2023-01-17T18:21:54.237Z,2.42
2023-01-17T18:24:22.979Z,2.42
2023-01-17T18:26:57.567Z,2.39
2023-01-17T18:29:25.354Z,2.42
2023-01-17T18:31:53.478Z,2.45
2023-01-17T18:34:23.857Z,2.48
2023-01-17T18:36:51.834Z,2.50
2023-01-17T18:39:24.630Z,2.49
2023-01-17T18:41:51.471Z,2.45
2023-01-17T18:44:21.825Z,2.50
2023-01-17T18:46:50.206Z,2.47
2023-01-17T18:49:18.991Z,2.42
2023-01-17T18:51:48.917Z,2.38
2023-01-17T18:54:15.487Z,2.29
2023-01-17T18:56:42.432Z,2.27
2023-01-17T18:59:12.435Z,2.20
2023-01-17T19:01:42.183Z,2.14
2023-01-17T19:04:09.511Z,2.07
2023-01-17T19:06:38.655Z,2.04
2023-01-17T19:09:07.506Z,2.01
2023-01-17T19:11:34.862Z,1.91
2023-01-17T19:14:01.293Z,1.80
2023-01-17T19:16:32.421Z,1.75
2023-01-17T19:19:04.477Z,1.71
2023-01-17T19:21:31.348Z,1.66
2023-01-17T19:23:58.197Z,1.64
2023-01-17T19:26:27.204Z,1.61
2023-01-17T19:29:04.963Z,1.52
2023-01-17T19:31:35.856Z,1.54
2023-01-17T19:34:02.393Z,1.49
2023-01-17T19:36:33.598Z,1.48
2023-01-17T19:39:04.904Z,1.45
2023-01-17T19:41:35.431Z,1.42
2023-01-17T19:44:07.178Z,1.38
2023-01-17T19:46:34.798Z,1.36
2023-01-17T19:49:01.715Z,1.35
2023-01-17T19:51:28.490Z,1.38
2023-01-17T19:53:55.639Z,1.41
2023-01-17T19:56:25.354Z,1.42
2023-01-17T19:58:52.507Z,1.41
2023-01-17T20:01:24.457Z,1.37
2023-01-17T20:03:51.670Z,1.35
2023-01-17T20:06:23.677Z,1.34
2023-01-17T20:08:50.259Z,1.34
2023-01-17T20:11:22.357Z,1.32
2023-01-17T20:13:56.118Z,1.29
2023-01-17T20:16:24.523Z,1.27
2023-01-17T20:18:51.421Z,1.32
2023-01-17T20:21:20.660Z,1.29
2023-01-17T20:23:48.139Z,1.32
2023-01-17T20:26:20.198Z,1.30
2023-01-17T20:28:48.932Z,1.30
2023-01-17T20:31:21.056Z,1.28
2023-01-17T20:33:50.365Z,1.34
2023-01-17T20:36:18.291Z,1.29
2023-01-17T20:38:44.981Z,1.20
2023-01-17T20:41:19.634Z,1.17
2023-01-17T20:43:51.236Z,1.24
2023-01-17T20:46:19.539Z,1.24
2023-01-17T20:48:48.186Z,1.24
2023-01-17T20:51:15.785Z,1.17
2023-01-17T20:53:43.517Z,1.18
2023-01-17T20:56:14.143Z,1.23
2023-01-17T20:58:41.730Z,1.24
2023-01-17T21:01:13.620Z,1.24
2023-01-17T21:03:40.166Z,1.18
2023-01-17T21:06:09.185Z,1.15
2023-01-17T21:08:38.123Z,1.19
2023-01-17T21:11:05.766Z,1.23
2023-01-17T21:13:32.482Z,1.24
2023-01-17T21:15:59.684Z,1.29
2023-01-17T21:18:28.128Z,1.32
2023-01-17T21:20:54.723Z,1.32
2023-01-17T21:23:23.427Z,1.33
2023-01-17T21:25:55.392Z,1.33
2023-01-17T21:28:23.723Z,1.34
2023-01-17T21:30:50.955Z,1.38
2023-01-17T21:33:18.590Z,1.41
2023-01-17T21:35:45.551Z,1.40
2023-01-17T21:38:13.750Z,1.37
2023-01-17T21:40:41.466Z,1.32
2023-01-17T21:43:08.287Z,1.34
2023-01-17T21:45:39.198Z,1.38
2023-01-17T21:48:12.042Z,1.39
2023-01-17T21:50:39.204Z,1.39
2023-01-17T21:53:05.917Z,1.39
2023-01-17T21:55:51.119Z,1.41
2023-01-17T21:58:36.452Z,1.40
2023-01-17T22:01:18.846Z,1.42
2023-01-17T22:03:49.622Z,1.43
2023-01-17T22:06:16.337Z,1.37
2023-01-17T22:08:43.160Z,1.43
2023-01-17T22:11:12.507Z,1.44
2023-01-17T22:13:40.799Z,1.45
2023-01-17T22:16:10.283Z,1.42
2023-01-17T22:18:38.939Z,1.42
2023-01-17T22:21:26.108Z,1.41
2023-01-17T22:23:55.107Z,1.42
2023-01-17T22:26:26.300Z,1.44
2023-01-17T22:28:53.705Z,1.45
2023-01-17T22:31:25.653Z,1.40
2023-01-17T22:33:57.893Z,1.28
2023-01-17T22:36:25.005Z,1.30
2023-01-17T22:38:52.150Z,1.26
2023-01-17T22:41:23.188Z,1.29
2023-01-17T22:43:51.980Z,1.27
2023-01-17T22:46:21.447Z,1.24
2023-01-17T22:48:48.473Z,1.18
2023-01-17T22:51:17.142Z,1.16
2023-01-17T22:53:47.056Z,1.16
2023-01-17T22:56:22.139Z,1.15
2023-01-17T22:58:49.701Z,1.10
2023-01-17T23:01:24.753Z,1.08
2023-01-17T23:03:53.924Z,1.07
2023-01-17T23:06:25.894Z,1.07
2023-01-17T23:08:54.118Z,1.05
2023-01-17T23:11:41.056Z,1.04
2023-01-17T23:14:24.333Z,1.03
2023-01-17T23:17:11.901Z,1.05
2023-01-17T23:19:40.693Z,1.04
2023-01-17T23:22:20.244Z,1.00
2023-01-17T23:24:49.773Z,0.97
2023-01-17T23:27:41.263Z,0.98
2023-01-17T23:30:16.529Z,0.89
2023-01-17T23:32:48.603Z,0.87
2023-01-17T23:35:16.460Z,0.84
2023-01-17T23:38:01.592Z,0.84
2023-01-17T23:40:28.222Z,0.85
2023-01-17T23:43:13.219Z,0.85
2023-01-17T23:45:39.801Z,0.83
2023-01-17T23:48:09.263Z,0.79
2023-01-17T23:50:37.666Z,0.74
2023-01-17T23:53:07.187Z,0.69
2023-01-17T23:55:41.441Z,0.66
2023-01-17T23:58:10.461Z,0.68
